sensor_id;sensor_type;location;lat;lon;timestamp;P1;durP1;ratioP1;P2;durP2;ratioP2
10894;SDS011;5500;49.886;8.074;2023-05-20T00:00:55;2.93;;;2.23;;
10894;SDS011;5500;49.886;8.074;2023-05-20T00:03:24;3.60;;;2.30;;
10894;SDS011;5500;49.886;8.074;2023-05-20T00:05:52;2.87;;;2.00;;
10894;SDS011;5500;49.886;8.074;2023-05-20T00:08:20;6.43;;;2.30;;
10894;SDS011;5500;49.886;8.074;2023-05-20T00:10:48;2.80;;;2.17;;
10894;SDS011;5500;49.886;8.074;2023-05-20T00:13:15;3.10;;;2.27;;
10894;SDS011;5500;49.886;8.074;2023-05-20T00:15:43;2.63;;;2.17;;
10894;SDS011;5500;49.886;8.074;2023-05-20T00:18:10;3.00;;;2.50;;
10894;SDS011;5500;49.886;8.074;2023-05-20T00:20:39;3.83;;;2.07;;
10894;SDS011;5500;49.886;8.074;2023-05-20T00:23:07;7.80;;;2.23;;
10894;SDS011;5500;49.886;8.074;2023-05-20T00:25:35;4.57;;;1.90;;
10894;SDS011;5500;49.886;8.074;2023-05-20T00:28:02;3.50;;;2.07;;
10894;SDS011;5500;49.886;8.074;2023-05-20T00:30:31;3.63;;;2.40;;
10894;SDS011;5500;49.886;8.074;2023-05-20T00:32:58;2.70;;;2.10;;
10894;SDS011;5500;49.886;8.074;2023-05-20T00:35:26;2.97;;;2.10;;
10894;SDS011;5500;49.886;8.074;2023-05-20T00:37:56;3.03;;;2.67;;
10894;SDS011;5500;49.886;8.074;2023-05-20T00:40:23;3.23;;;2.00;;
10894;SDS011;5500;49.886;8.074;2023-05-20T00:42:51;5.83;;;2.03;;
10894;SDS011;5500;49.886;8.074;2023-05-20T00:45:19;3.63;;;2.30;;
10894;SDS011;5500;49.886;8.074;2023-05-20T00:47:46;5.23;;;2.17;;
10894;SDS011;5500;49.886;8.074;2023-05-20T00:50:15;3.27;;;2.40;;
10894;SDS011;5500;49.886;8.074;2023-05-20T00:52:43;3.60;;;2.20;;
10894;SDS011;5500;49.886;8.074;2023-05-20T00:55:14;3.30;;;2.20;;
10894;SDS011;5500;49.886;8.074;2023-05-20T00:57:42;2.73;;;1.83;;
10894;SDS011;5500;49.886;8.074;2023-05-20T01:00:10;4.67;;;2.30;;
10894;SDS011;5500;49.886;8.074;2023-05-20T01:02:38;2.83;;;1.90;;
10894;SDS011;5500;49.886;8.074;2023-05-20T01:05:06;4.20;;;2.30;;
10894;SDS011;5500;49.886;8.074;2023-05-20T01:07:34;3.33;;;2.23;;
10894;SDS011;5500;49.886;8.074;2023-05-20T01:10:02;2.40;;;2.20;;
10894;SDS011;5500;49.886;8.074;2023-05-20T01:12:33;4.13;;;2.20;;
10894;SDS011;5500;49.886;8.074;2023-05-20T01:15:04;3.70;;;2.57;;
10894;SDS011;5500;49.886;8.074;2023-05-20T01:17:35;2.30;;;2.10;;
10894;SDS011;5500;49.886;8.074;2023-05-20T01:20:05;5.10;;;2.67;;
10894;SDS011;5500;49.886;8.074;2023-05-20T01:22:37;3.50;;;2.87;;
10894;SDS011;5500;49.886;8.074;2023-05-20T01:25:05;3.60;;;2.33;;
10894;SDS011;5500;49.886;8.074;2023-05-20T01:27:33;2.40;;;2.20;;
10894;SDS011;5500;49.886;8.074;2023-05-20T01:30:01;3.00;;;2.57;;
10894;SDS011;5500;49.886;8.074;2023-05-20T01:32:30;5.17;;;2.27;;
10894;SDS011;5500;49.886;8.074;2023-05-20T01:35:02;3.13;;;2.57;;
10894;SDS011;5500;49.886;8.074;2023-05-20T01:37:30;2.70;;;2.47;;
10894;SDS011;5500;49.886;8.074;2023-05-20T01:40:00;4.07;;;2.60;;
10894;SDS011;5500;49.886;8.074;2023-05-20T01:42:27;2.50;;;2.30;;
10894;SDS011;5500;49.886;8.074;2023-05-20T01:44:55;2.73;;;2.23;;
10894;SDS011;5500;49.886;8.074;2023-05-20T01:47:23;3.07;;;2.60;;
10894;SDS011;5500;49.886;8.074;2023-05-20T01:49:51;8.07;;;2.90;;
10894;SDS011;5500;49.886;8.074;2023-05-20T01:52:19;3.63;;;2.50;;
10894;SDS011;5500;49.886;8.074;2023-05-20T01:54:47;4.40;;;2.73;;
10894;SDS011;5500;49.886;8.074;2023-05-20T01:57:18;4.77;;;2.47;;
10894;SDS011;5500;49.886;8.074;2023-05-20T01:59:46;6.03;;;2.70;;
10894;SDS011;5500;49.886;8.074;2023-05-20T02:02:14;3.10;;;2.70;;
10894;SDS011;5500;49.886;8.074;2023-05-20T02:04:42;3.83;;;2.40;;
10894;SDS011;5500;49.886;8.074;2023-05-20T02:07:13;3.20;;;2.50;;
10894;SDS011;5500;49.886;8.074;2023-05-20T02:09:41;3.53;;;2.50;;
10894;SDS011;5500;49.886;8.074;2023-05-20T02:12:08;3.73;;;2.60;;
10894;SDS011;5500;49.886;8.074;2023-05-20T02:14:43;3.03;;;2.57;;
10894;SDS011;5500;49.886;8.074;2023-05-20T02:17:11;3.60;;;2.77;;
10894;SDS011;5500;49.886;8.074;2023-05-20T02:19:39;5.17;;;2.70;;
10894;SDS011;5500;49.886;8.074;2023-05-20T02:22:07;6.23;;;2.73;;
10894;SDS011;5500;49.886;8.074;2023-05-20T02:24:35;4.47;;;2.80;;
10894;SDS011;5500;49.886;8.074;2023-05-20T02:27:02;4.13;;;2.43;;
10894;SDS011;5500;49.886;8.074;2023-05-20T02:29:31;4.17;;;2.43;;
10894;SDS011;5500;49.886;8.074;2023-05-20T02:32:00;3.70;;;2.70;;
10894;SDS011;5500;49.886;8.074;2023-05-20T02:34:28;3.20;;;2.50;;
10894;SDS011;5500;49.886;8.074;2023-05-20T02:36:56;6.87;;;2.53;;
10894;SDS011;5500;49.886;8.074;2023-05-20T02:39:25;4.07;;;2.80;;
10894;SDS011;5500;49.886;8.074;2023-05-20T02:41:56;4.87;;;2.30;;
10894;SDS011;5500;49.886;8.074;2023-05-20T02:44:24;2.90;;;2.60;;
10894;SDS011;5500;49.886;8.074;2023-05-20T02:46:51;2.77;;;2.40;;
10894;SDS011;5500;49.886;8.074;2023-05-20T02:49:20;2.60;;;2.40;;
10894;SDS011;5500;49.886;8.074;2023-05-20T02:51:49;6.10;;;2.60;;
10894;SDS011;5500;49.886;8.074;2023-05-20T02:54:17;3.23;;;2.50;;
10894;SDS011;5500;49.886;8.074;2023-05-20T02:56:44;3.00;;;2.70;;
10894;SDS011;5500;49.886;8.074;2023-05-20T02:59:12;3.20;;;2.60;;
10894;SDS011;5500;49.886;8.074;2023-05-20T03:01:40;3.43;;;2.70;;
10894;SDS011;5500;49.886;8.074;2023-05-20T03:04:08;3.57;;;2.50;;
10894;SDS011;5500;49.886;8.074;2023-05-20T03:06:37;3.93;;;2.53;;
10894;SDS011;5500;49.886;8.074;2023-05-20T03:09:09;2.47;;;2.27;;
10894;SDS011;5500;49.886;8.074;2023-05-20T03:11:37;3.73;;;2.87;;
10894;SDS011;5500;49.886;8.074;2023-05-20T03:14:05;7.00;;;2.70;;
10894;SDS011;5500;49.886;8.074;2023-05-20T03:16:32;5.03;;;3.03;;
10894;SDS011;5500;49.886;8.074;2023-05-20T03:19:00;3.80;;;2.63;;
10894;SDS011;5500;49.886;8.074;2023-05-20T03:21:28;4.23;;;2.77;;
10894;SDS011;5500;49.886;8.074;2023-05-20T03:23:57;6.47;;;2.90;;
10894;SDS011;5500;49.886;8.074;2023-05-20T03:26:25;3.07;;;2.50;;
10894;SDS011;5500;49.886;8.074;2023-05-20T03:28:53;2.67;;;2.33;;
10894;SDS011;5500;49.886;8.074;2023-05-20T03:31:20;3.70;;;3.00;;
10894;SDS011;5500;49.886;8.074;2023-05-20T03:33:48;3.10;;;2.50;;
10894;SDS011;5500;49.886;8.074;2023-05-20T03:36:16;4.50;;;2.73;;
10894;SDS011;5500;49.886;8.074;2023-05-20T03:38:43;5.07;;;2.67;;
10894;SDS011;5500;49.886;8.074;2023-05-20T03:41:12;5.17;;;2.70;;
10894;SDS011;5500;49.886;8.074;2023-05-20T03:43:40;3.33;;;2.83;;
10894;SDS011;5500;49.886;8.074;2023-05-20T03:46:08;5.73;;;2.70;;
10894;SDS011;5500;49.886;8.074;2023-05-20T03:48:36;3.17;;;2.50;;
10894;SDS011;5500;49.886;8.074;2023-05-20T03:51:04;3.47;;;2.87;;
10894;SDS011;5500;49.886;8.074;2023-05-20T03:53:31;5.73;;;2.67;;
10894;SDS011;5500;49.886;8.074;2023-05-20T03:55:59;2.87;;;2.57;;
10894;SDS011;5500;49.886;8.074;2023-05-20T03:58:28;3.50;;;2.47;;
10894;SDS011;5500;49.886;8.074;2023-05-20T04:00:56;2.97;;;2.13;;
10894;SDS011;5500;49.886;8.074;2023-05-20T04:03:24;4.40;;;3.20;;
10894;SDS011;5500;49.886;8.074;2023-05-20T04:05:54;4.30;;;2.50;;
10894;SDS011;5500;49.886;8.074;2023-05-20T04:08:21;4.63;;;2.60;;
10894;SDS011;5500;49.886;8.074;2023-05-20T04:10:54;3.13;;;2.67;;
10894;SDS011;5500;49.886;8.074;2023-05-20T04:13:23;5.87;;;2.63;;
10894;SDS011;5500;49.886;8.074;2023-05-20T04:15:52;2.73;;;2.47;;
10894;SDS011;5500;49.886;8.074;2023-05-20T04:18:20;4.43;;;2.70;;
10894;SDS011;5500;49.886;8.074;2023-05-20T04:20:48;4.43;;;2.83;;
10894;SDS011;5500;49.886;8.074;2023-05-20T04:23:15;3.10;;;2.40;;
10894;SDS011;5500;49.886;8.074;2023-05-20T04:25:43;3.80;;;2.40;;
10894;SDS011;5500;49.886;8.074;2023-05-20T04:28:11;2.60;;;2.40;;
10894;SDS011;5500;49.886;8.074;2023-05-20T04:30:41;3.67;;;2.80;;
10894;SDS011;5500;49.886;8.074;2023-05-20T04:33:11;5.33;;;2.63;;
10894;SDS011;5500;49.886;8.074;2023-05-20T04:35:40;3.37;;;2.77;;
10894;SDS011;5500;49.886;8.074;2023-05-20T04:38:09;3.83;;;3.10;;
10894;SDS011;5500;49.886;8.074;2023-05-20T04:40:36;3.93;;;3.03;;
10894;SDS011;5500;49.886;8.074;2023-05-20T04:43:04;4.20;;;3.13;;
10894;SDS011;5500;49.886;8.074;2023-05-20T04:45:32;3.13;;;2.70;;
10894;SDS011;5500;49.886;8.074;2023-05-20T04:48:01;3.13;;;2.83;;
10894;SDS011;5500;49.886;8.074;2023-05-20T04:50:30;3.23;;;2.83;;
10894;SDS011;5500;49.886;8.074;2023-05-20T04:52:58;5.30;;;2.90;;
10894;SDS011;5500;49.886;8.074;2023-05-20T04:55:25;3.57;;;3.27;;
10894;SDS011;5500;49.886;8.074;2023-05-20T04:57:54;3.23;;;2.80;;
10894;SDS011;5500;49.886;8.074;2023-05-20T05:00:21;3.67;;;2.80;;
10894;SDS011;5500;49.886;8.074;2023-05-20T05:02:49;2.80;;;2.60;;
10894;SDS011;5500;49.886;8.074;2023-05-20T05:05:17;3.67;;;3.00;;
10894;SDS011;5500;49.886;8.074;2023-05-20T05:07:46;5.13;;;3.67;;
10894;SDS011;5500;49.886;8.074;2023-05-20T05:10:13;3.80;;;3.10;;
10894;SDS011;5500;49.886;8.074;2023-05-20T05:12:41;3.63;;;3.03;;
10894;SDS011;5500;49.886;8.074;2023-05-20T05:15:09;4.70;;;3.10;;
10894;SDS011;5500;49.886;8.074;2023-05-20T05:17:37;4.30;;;3.50;;
10894;SDS011;5500;49.886;8.074;2023-05-20T05:20:05;3.20;;;2.87;;
10894;SDS011;5500;49.886;8.074;2023-05-20T05:22:34;5.67;;;3.67;;
10894;SDS011;5500;49.886;8.074;2023-05-20T05:25:06;3.80;;;2.67;;
10894;SDS011;5500;49.886;8.074;2023-05-20T05:27:35;4.63;;;3.27;;
10894;SDS011;5500;49.886;8.074;2023-05-20T05:30:03;5.80;;;3.30;;
10894;SDS011;5500;49.886;8.074;2023-05-20T05:32:32;5.33;;;3.27;;
10894;SDS011;5500;49.886;8.074;2023-05-20T05:35:00;5.07;;;3.00;;
10894;SDS011;5500;49.886;8.074;2023-05-20T05:37:28;3.80;;;2.90;;
10894;SDS011;5500;49.886;8.074;2023-05-20T05:39:56;5.37;;;3.00;;
10894;SDS011;5500;49.886;8.074;2023-05-20T05:42:25;7.93;;;3.40;;
10894;SDS011;5500;49.886;8.074;2023-05-20T05:44:52;6.67;;;3.27;;
10894;SDS011;5500;49.886;8.074;2023-05-20T05:47:20;4.83;;;3.20;;
10894;SDS011;5500;49.886;8.074;2023-05-20T05:49:48;5.87;;;3.03;;
10894;SDS011;5500;49.886;8.074;2023-05-20T05:52:16;5.07;;;3.33;;
10894;SDS011;5500;49.886;8.074;2023-05-20T05:54:44;4.70;;;3.30;;
10894;SDS011;5500;49.886;8.074;2023-05-20T05:57:12;4.57;;;3.53;;
10894;SDS011;5500;49.886;8.074;2023-05-20T05:59:41;4.27;;;3.40;;
10894;SDS011;5500;49.886;8.074;2023-05-20T06:02:09;5.43;;;4.10;;
10894;SDS011;5500;49.886;8.074;2023-05-20T06:04:37;5.27;;;3.87;;
10894;SDS011;5500;49.886;8.074;2023-05-20T06:07:04;4.80;;;3.40;;
10894;SDS011;5500;49.886;8.074;2023-05-20T06:09:32;6.30;;;3.53;;
10894;SDS011;5500;49.886;8.074;2023-05-20T06:12:00;4.57;;;3.67;;
10894;SDS011;5500;49.886;8.074;2023-05-20T06:14:28;5.97;;;3.40;;
10894;SDS011;5500;49.886;8.074;2023-05-20T06:16:57;5.83;;;3.70;;
10894;SDS011;5500;49.886;8.074;2023-05-20T06:19:24;6.93;;;3.70;;
10894;SDS011;5500;49.886;8.074;2023-05-20T06:21:52;4.97;;;3.50;;
10894;SDS011;5500;49.886;8.074;2023-05-20T06:24:20;3.57;;;3.27;;
10894;SDS011;5500;49.886;8.074;2023-05-20T06:26:49;3.80;;;3.50;;
10894;SDS011;5500;49.886;8.074;2023-05-20T06:29:17;4.43;;;4.03;;
10894;SDS011;5500;49.886;8.074;2023-05-20T06:31:45;5.10;;;3.53;;
10894;SDS011;5500;49.886;8.074;2023-05-20T06:34:14;4.23;;;3.57;;
10894;SDS011;5500;49.886;8.074;2023-05-20T06:36:41;4.67;;;4.27;;
10894;SDS011;5500;49.886;8.074;2023-05-20T06:39:09;5.33;;;3.93;;
10894;SDS011;5500;49.886;8.074;2023-05-20T06:41:37;4.37;;;3.97;;
10894;SDS011;5500;49.886;8.074;2023-05-20T06:44:06;4.20;;;3.80;;
10894;SDS011;5500;49.886;8.074;2023-05-20T06:46:33;5.87;;;4.23;;
10894;SDS011;5500;49.886;8.074;2023-05-20T06:49:01;7.33;;;4.27;;
10894;SDS011;5500;49.886;8.074;2023-05-20T06:51:30;4.77;;;3.87;;
10894;SDS011;5500;49.886;8.074;2023-05-20T06:53:58;4.00;;;3.60;;
10894;SDS011;5500;49.886;8.074;2023-05-20T06:56:25;4.30;;;3.90;;
10894;SDS011;5500;49.886;8.074;2023-05-20T06:58:53;5.90;;;4.03;;
10894;SDS011;5500;49.886;8.074;2023-05-20T07:01:21;4.13;;;3.73;;
10894;SDS011;5500;49.886;8.074;2023-05-20T07:03:49;4.60;;;4.20;;
10894;SDS011;5500;49.886;8.074;2023-05-20T07:06:17;5.90;;;4.47;;
10894;SDS011;5500;49.886;8.074;2023-05-20T07:08:46;6.73;;;4.40;;
10894;SDS011;5500;49.886;8.074;2023-05-20T07:11:13;5.17;;;4.27;;
10894;SDS011;5500;49.886;8.074;2023-05-20T07:13:41;5.80;;;4.53;;
10894;SDS011;5500;49.886;8.074;2023-05-20T07:16:08;7.23;;;4.63;;
10894;SDS011;5500;49.886;8.074;2023-05-20T07:18:36;7.10;;;5.07;;
10894;SDS011;5500;49.886;8.074;2023-05-20T07:21:04;5.27;;;4.77;;
10894;SDS011;5500;49.886;8.074;2023-05-20T07:23:31;4.33;;;3.90;;
10894;SDS011;5500;49.886;8.074;2023-05-20T07:26:00;5.77;;;4.43;;
10894;SDS011;5500;49.886;8.074;2023-05-20T07:28:28;7.10;;;4.60;;
10894;SDS011;5500;49.886;8.074;2023-05-20T07:30:56;10.53;;;4.80;;
10894;SDS011;5500;49.886;8.074;2023-05-20T07:33:25;4.70;;;4.20;;
10894;SDS011;5500;49.886;8.074;2023-05-20T07:35:53;5.87;;;4.70;;
10894;SDS011;5500;49.886;8.074;2023-05-20T07:38:21;5.97;;;4.73;;
10894;SDS011;5500;49.886;8.074;2023-05-20T07:40:48;5.27;;;4.70;;
10894;SDS011;5500;49.886;8.074;2023-05-20T07:43:18;7.23;;;4.53;;
10894;SDS011;5500;49.886;8.074;2023-05-20T07:45:46;5.23;;;4.50;;
10894;SDS011;5500;49.886;8.074;2023-05-20T07:48:13;5.00;;;4.00;;
10894;SDS011;5500;49.886;8.074;2023-05-20T07:50:41;5.50;;;5.00;;
10894;SDS011;5500;49.886;8.074;2023-05-20T07:53:09;5.83;;;4.97;;
10894;SDS011;5500;49.886;8.074;2023-05-20T07:55:37;5.03;;;4.53;;
10894;SDS011;5500;49.886;8.074;2023-05-20T07:58:04;5.77;;;4.77;;
10894;SDS011;5500;49.886;8.074;2023-05-20T08:00:33;6.50;;;4.97;;
10894;SDS011;5500;49.886;8.074;2023-05-20T08:03:01;10.67;;;5.13;;
10894;SDS011;5500;49.886;8.074;2023-05-20T08:05:29;5.63;;;5.03;;
10894;SDS011;5500;49.886;8.074;2023-05-20T08:07:57;7.40;;;5.17;;
10894;SDS011;5500;49.886;8.074;2023-05-20T08:10:25;7.33;;;4.50;;
10894;SDS011;5500;49.886;8.074;2023-05-20T08:12:52;5.60;;;4.83;;
10894;SDS011;5500;49.886;8.074;2023-05-20T08:15:20;4.93;;;4.53;;
10894;SDS011;5500;49.886;8.074;2023-05-20T08:17:49;7.60;;;5.07;;
10894;SDS011;5500;49.886;8.074;2023-05-20T08:20:17;5.47;;;4.93;;
10894;SDS011;5500;49.886;8.074;2023-05-20T08:22:46;5.97;;;5.03;;
10894;SDS011;5500;49.886;8.074;2023-05-20T08:25:13;6.00;;;4.70;;
10894;SDS011;5500;49.886;8.074;2023-05-20T08:27:41;6.83;;;5.33;;
10894;SDS011;5500;49.886;8.074;2023-05-20T08:30:09;5.97;;;5.37;;
10894;SDS011;5500;49.886;8.074;2023-05-20T08:32:37;9.30;;;5.70;;
10894;SDS011;5500;49.886;8.074;2023-05-20T08:35:06;7.03;;;5.37;;
10894;SDS011;5500;49.886;8.074;2023-05-20T08:37:34;6.87;;;5.60;;
10894;SDS011;5500;49.886;8.074;2023-05-20T08:40:02;5.43;;;4.67;;
10894;SDS011;5500;49.886;8.074;2023-05-20T08:42:31;5.37;;;4.97;;
10894;SDS011;5500;49.886;8.074;2023-05-20T08:45:00;7.87;;;5.57;;
10894;SDS011;5500;49.886;8.074;2023-05-20T08:47:28;6.00;;;5.10;;
10894;SDS011;5500;49.886;8.074;2023-05-20T08:49:56;5.63;;;5.13;;
10894;SDS011;5500;49.886;8.074;2023-05-20T08:52:25;5.93;;;5.30;;
10894;SDS011;5500;49.886;8.074;2023-05-20T08:54:53;5.83;;;5.33;;
10894;SDS011;5500;49.886;8.074;2023-05-20T08:57:21;6.00;;;5.40;;
10894;SDS011;5500;49.886;8.074;2023-05-20T08:59:49;5.60;;;5.10;;
10894;SDS011;5500;49.886;8.074;2023-05-20T09:02:17;12.97;;;5.87;;
10894;SDS011;5500;49.886;8.074;2023-05-20T09:04:44;6.70;;;5.60;;
10894;SDS011;5500;49.886;8.074;2023-05-20T09:07:12;7.67;;;6.33;;
10894;SDS011;5500;49.886;8.074;2023-05-20T09:09:41;6.83;;;6.23;;
10894;SDS011;5500;49.886;8.074;2023-05-20T09:12:09;6.83;;;6.20;;
10894;SDS011;5500;49.886;8.074;2023-05-20T09:14:36;8.03;;;6.10;;
10894;SDS011;5500;49.886;8.074;2023-05-20T09:17:04;7.40;;;6.63;;
10894;SDS011;5500;49.886;8.074;2023-05-20T09:19:33;9.83;;;6.50;;
10894;SDS011;5500;49.886;8.074;2023-05-20T09:22:01;7.00;;;6.30;;
10894;SDS011;5500;49.886;8.074;2023-05-20T09:24:30;6.17;;;5.57;;
10894;SDS011;5500;49.886;8.074;2023-05-20T09:27:02;12.40;;;6.43;;
10894;SDS011;5500;49.886;8.074;2023-05-20T09:29:32;6.53;;;5.30;;
10894;SDS011;5500;49.886;8.074;2023-05-20T09:32:00;6.53;;;5.90;;
10894;SDS011;5500;49.886;8.074;2023-05-20T09:34:28;6.80;;;6.13;;
10894;SDS011;5500;49.886;8.074;2023-05-20T09:36:56;7.57;;;6.30;;
10894;SDS011;5500;49.886;8.074;2023-05-20T09:39:26;6.33;;;5.70;;
10894;SDS011;5500;49.886;8.074;2023-05-20T09:41:59;6.73;;;5.77;;
10894;SDS011;5500;49.886;8.074;2023-05-20T09:44:32;9.20;;;5.70;;
10894;SDS011;5500;49.886;8.074;2023-05-20T09:47:00;7.30;;;6.70;;
10894;SDS011;5500;49.886;8.074;2023-05-20T09:49:27;6.60;;;6.00;;
10894;SDS011;5500;49.886;8.074;2023-05-20T09:51:56;7.40;;;6.57;;
10894;SDS011;5500;49.886;8.074;2023-05-20T09:54:24;7.33;;;6.60;;
10894;SDS011;5500;49.886;8.074;2023-05-20T09:56:52;10.47;;;7.33;;
10894;SDS011;5500;49.886;8.074;2023-05-20T09:59:22;7.43;;;6.73;;
10894;SDS011;5500;49.886;8.074;2023-05-20T10:01:50;7.77;;;6.87;;
10894;SDS011;5500;49.886;8.074;2023-05-20T10:04:18;7.37;;;6.67;;
10894;SDS011;5500;49.886;8.074;2023-05-20T10:06:51;6.90;;;6.30;;
10894;SDS011;5500;49.886;8.074;2023-05-20T10:09:34;7.00;;;6.30;;
10894;SDS011;5500;49.886;8.074;2023-05-20T10:12:11;7.47;;;6.67;;
10894;SDS011;5500;49.886;8.074;2023-05-20T10:14:48;8.77;;;6.57;;
10894;SDS011;5500;49.886;8.074;2023-05-20T10:17:24;8.97;;;6.87;;
10894;SDS011;5500;49.886;8.074;2023-05-20T10:19:58;7.20;;;6.50;;
10894;SDS011;5500;49.886;8.074;2023-05-20T10:22:26;6.47;;;5.87;;
10894;SDS011;5500;49.886;8.074;2023-05-20T10:24:57;7.30;;;6.27;;
10894;SDS011;5500;49.886;8.074;2023-05-20T10:27:25;8.43;;;5.97;;
10894;SDS011;5500;49.886;8.074;2023-05-20T10:29:55;6.57;;;5.83;;
10894;SDS011;5500;49.886;8.074;2023-05-20T10:32:24;6.97;;;6.30;;
10894;SDS011;5500;49.886;8.074;2023-05-20T10:34:57;8.77;;;6.13;;
10894;SDS011;5500;49.886;8.074;2023-05-20T10:37:25;6.70;;;6.20;;
10894;SDS011;5500;49.886;8.074;2023-05-20T10:40:02;10.10;;;6.10;;
10894;SDS011;5500;49.886;8.074;2023-05-20T10:42:32;8.93;;;6.70;;
10894;SDS011;5500;49.886;8.074;2023-05-20T10:45:01;7.93;;;6.50;;
10894;SDS011;5500;49.886;8.074;2023-05-20T10:47:30;7.40;;;6.17;;
10894;SDS011;5500;49.886;8.074;2023-05-20T10:49:57;7.10;;;6.40;;
10894;SDS011;5500;49.886;8.074;2023-05-20T10:52:27;8.63;;;6.30;;
10894;SDS011;5500;49.886;8.074;2023-05-20T10:54:59;7.93;;;6.30;;
10894;SDS011;5500;49.886;8.074;2023-05-20T10:57:28;8.10;;;6.00;;
10894;SDS011;5500;49.886;8.074;2023-05-20T10:59:56;7.00;;;6.10;;
10894;SDS011;5500;49.886;8.074;2023-05-20T11:02:25;6.57;;;5.97;;
10894;SDS011;5500;49.886;8.074;2023-05-20T11:04:54;6.77;;;6.17;;
10894;SDS011;5500;49.886;8.074;2023-05-20T11:07:23;7.80;;;6.47;;
10894;SDS011;5500;49.886;8.074;2023-05-20T11:09:52;7.13;;;6.07;;
10894;SDS011;5500;49.886;8.074;2023-05-20T11:12:20;6.80;;;6.23;;
10894;SDS011;5500;49.886;8.074;2023-05-20T11:14:48;6.93;;;6.33;;
10894;SDS011;5500;49.886;8.074;2023-05-20T11:17:17;9.63;;;6.30;;
10894;SDS011;5500;49.886;8.074;2023-05-20T11:19:46;6.90;;;5.63;;
10894;SDS011;5500;49.886;8.074;2023-05-20T11:22:14;8.20;;;6.13;;
10894;SDS011;5500;49.886;8.074;2023-05-20T11:24:42;6.27;;;5.67;;
10894;SDS011;5500;49.886;8.074;2023-05-20T11:27:09;6.60;;;5.90;;
10894;SDS011;5500;49.886;8.074;2023-05-20T11:29:37;7.63;;;6.00;;
10894;SDS011;5500;49.886;8.074;2023-05-20T11:32:06;6.23;;;5.63;;
10894;SDS011;5500;49.886;8.074;2023-05-20T11:34:34;6.80;;;5.37;;
10894;SDS011;5500;49.886;8.074;2023-05-20T11:37:07;7.53;;;5.43;;
10894;SDS011;5500;49.886;8.074;2023-05-20T11:39:35;7.30;;;6.60;;
10894;SDS011;5500;49.886;8.074;2023-05-20T11:42:03;9.07;;;6.53;;
10894;SDS011;5500;49.886;8.074;2023-05-20T11:44:32;6.47;;;5.53;;
10894;SDS011;5500;49.886;8.074;2023-05-20T11:47:00;6.33;;;5.73;;
10894;SDS011;5500;49.886;8.074;2023-05-20T11:49:28;6.30;;;5.80;;
10894;SDS011;5500;49.886;8.074;2023-05-20T11:51:56;6.80;;;6.10;;
10894;SDS011;5500;49.886;8.074;2023-05-20T11:54:25;8.13;;;6.23;;
10894;SDS011;5500;49.886;8.074;2023-05-20T11:56:53;7.33;;;6.67;;
10894;SDS011;5500;49.886;8.074;2023-05-20T11:59:22;6.43;;;5.83;;
10894;SDS011;5500;49.886;8.074;2023-05-20T12:01:50;5.83;;;5.33;;
10894;SDS011;5500;49.886;8.074;2023-05-20T12:04:17;7.17;;;6.30;;
10894;SDS011;5500;49.886;8.074;2023-05-20T12:06:45;6.53;;;5.93;;
10894;SDS011;5500;49.886;8.074;2023-05-20T12:09:13;6.50;;;5.90;;
10894;SDS011;5500;49.886;8.074;2023-05-20T12:11:42;7.73;;;5.73;;
10894;SDS011;5500;49.886;8.074;2023-05-20T12:14:10;7.00;;;6.27;;
10894;SDS011;5500;49.886;8.074;2023-05-20T12:16:38;6.80;;;5.57;;
10894;SDS011;5500;49.886;8.074;2023-05-20T12:19:06;6.60;;;5.90;;
10894;SDS011;5500;49.886;8.074;2023-05-20T12:21:34;6.30;;;5.70;;
10894;SDS011;5500;49.886;8.074;2023-05-20T12:24:02;7.73;;;6.13;;
10894;SDS011;5500;49.886;8.074;2023-05-20T12:26:32;11.63;;;6.60;;
10894;SDS011;5500;49.886;8.074;2023-05-20T12:29:01;8.40;;;5.83;;
10894;SDS011;5500;49.886;8.074;2023-05-20T12:31:29;8.47;;;5.90;;
10894;SDS011;5500;49.886;8.074;2023-05-20T12:34:00;6.33;;;5.73;;
10894;SDS011;5500;49.886;8.074;2023-05-20T12:36:27;10.43;;;6.03;;
10894;SDS011;5500;49.886;8.074;2023-05-20T12:38:55;6.70;;;6.00;;
10894;SDS011;5500;49.886;8.074;2023-05-20T12:41:23;7.00;;;6.30;;
10894;SDS011;5500;49.886;8.074;2023-05-20T12:43:51;6.33;;;5.80;;
10894;SDS011;5500;49.886;8.074;2023-05-20T12:46:20;7.37;;;6.67;;
10894;SDS011;5500;49.886;8.074;2023-05-20T12:48:48;8.37;;;5.67;;
10894;SDS011;5500;49.886;8.074;2023-05-20T12:51:16;6.77;;;5.70;;
10894;SDS011;5500;49.886;8.074;2023-05-20T12:53:45;7.30;;;5.87;;
10894;SDS011;5500;49.886;8.074;2023-05-20T12:56:13;5.93;;;5.43;;
10894;SDS011;5500;49.886;8.074;2023-05-20T12:58:40;9.10;;;6.23;;
10894;SDS011;5500;49.886;8.074;2023-05-20T13:01:08;7.10;;;5.60;;
10894;SDS011;5500;49.886;8.074;2023-05-20T13:03:37;6.93;;;5.57;;
10894;SDS011;5500;49.886;8.074;2023-05-20T13:06:05;7.20;;;5.60;;
10894;SDS011;5500;49.886;8.074;2023-05-20T13:08:32;7.20;;;6.00;;
10894;SDS011;5500;49.886;8.074;2023-05-20T13:11:00;6.70;;;5.80;;
10894;SDS011;5500;49.886;8.074;2023-05-20T13:13:27;7.83;;;5.50;;
10894;SDS011;5500;49.886;8.074;2023-05-20T13:15:55;6.07;;;5.47;;
10894;SDS011;5500;49.886;8.074;2023-05-20T13:18:23;8.47;;;6.07;;
10894;SDS011;5500;49.886;8.074;2023-05-20T13:20:52;7.13;;;6.00;;
10894;SDS011;5500;49.886;8.074;2023-05-20T13:23:19;10.93;;;5.60;;
10894;SDS011;5500;49.886;8.074;2023-05-20T13:25:47;10.77;;;5.27;;
10894;SDS011;5500;49.886;8.074;2023-05-20T13:28:15;13.30;;;5.87;;
10894;SDS011;5500;49.886;8.074;2023-05-20T13:30:45;6.20;;;5.70;;
10894;SDS011;5500;49.886;8.074;2023-05-20T13:33:13;7.43;;;5.43;;
10894;SDS011;5500;49.886;8.074;2023-05-20T13:35:41;6.40;;;5.80;;
10894;SDS011;5500;49.886;8.074;2023-05-20T13:38:10;7.53;;;5.90;;
10894;SDS011;5500;49.886;8.074;2023-05-20T13:40:37;5.80;;;5.20;;
10894;SDS011;5500;49.886;8.074;2023-05-20T13:43:05;9.80;;;5.30;;
10894;SDS011;5500;49.886;8.074;2023-05-20T13:45:33;7.17;;;5.40;;
10894;SDS011;5500;49.886;8.074;2023-05-20T13:48:01;7.10;;;5.50;;
10894;SDS011;5500;49.886;8.074;2023-05-20T13:50:29;7.67;;;5.73;;
10894;SDS011;5500;49.886;8.074;2023-05-20T13:52:56;6.50;;;5.33;;
10894;SDS011;5500;49.886;8.074;2023-05-20T13:55:25;6.63;;;5.90;;
10894;SDS011;5500;49.886;8.074;2023-05-20T13:57:53;6.20;;;5.70;;
10894;SDS011;5500;49.886;8.074;2023-05-20T14:00:21;11.20;;;6.20;;
10894;SDS011;5500;49.886;8.074;2023-05-20T14:02:48;8.10;;;5.30;;
10894;SDS011;5500;49.886;8.074;2023-05-20T14:05:16;6.53;;;5.67;;
10894;SDS011;5500;49.886;8.074;2023-05-20T14:07:44;8.43;;;7.00;;
10894;SDS011;5500;49.886;8.074;2023-05-20T14:10:11;7.70;;;6.17;;
10894;SDS011;5500;49.886;8.074;2023-05-20T14:12:40;6.37;;;5.77;;
10894;SDS011;5500;49.886;8.074;2023-05-20T14:15:13;7.53;;;6.07;;
10894;SDS011;5500;49.886;8.074;2023-05-20T14:17:40;6.77;;;6.07;;
10894;SDS011;5500;49.886;8.074;2023-05-20T14:20:08;9.90;;;6.47;;
10894;SDS011;5500;49.886;8.074;2023-05-20T14:22:36;6.03;;;5.47;;
10894;SDS011;5500;49.886;8.074;2023-05-20T14:25:04;6.37;;;5.83;;
10894;SDS011;5500;49.886;8.074;2023-05-20T14:27:33;7.50;;;6.37;;
10894;SDS011;5500;49.886;8.074;2023-05-20T14:30:02;8.93;;;6.20;;
10894;SDS011;5500;49.886;8.074;2023-05-20T14:32:30;8.77;;;6.20;;
10894;SDS011;5500;49.886;8.074;2023-05-20T14:34:58;6.33;;;5.83;;
10894;SDS011;5500;49.886;8.074;2023-05-20T14:37:26;9.63;;;6.93;;
10894;SDS011;5500;49.886;8.074;2023-05-20T14:39:54;7.13;;;6.50;;
10894;SDS011;5500;49.886;8.074;2023-05-20T14:42:21;7.50;;;6.80;;
10894;SDS011;5500;49.886;8.074;2023-05-20T14:44:49;6.83;;;6.13;;
10894;SDS011;5500;49.886;8.074;2023-05-20T14:47:18;9.53;;;6.30;;
10894;SDS011;5500;49.886;8.074;2023-05-20T14:49:47;7.70;;;6.90;;
10894;SDS011;5500;49.886;8.074;2023-05-20T14:52:15;7.33;;;6.63;;
10894;SDS011;5500;49.886;8.074;2023-05-20T14:54:43;8.57;;;6.90;;
10894;SDS011;5500;49.886;8.074;2023-05-20T14:57:11;7.90;;;7.10;;
10894;SDS011;5500;49.886;8.074;2023-05-20T14:59:38;7.63;;;6.33;;
10894;SDS011;5500;49.886;8.074;2023-05-20T15:02:06;7.40;;;6.80;;
10894;SDS011;5500;49.886;8.074;2023-05-20T15:04:37;7.70;;;6.73;;
10894;SDS011;5500;49.886;8.074;2023-05-20T15:07:05;8.03;;;6.50;;